Terminal Aerodrome Forecast
Issued by NWS

Home | Current Version | Previous Version | Text Only | Print | Product List | Glossary On
Versions: 1 2 3 4 5 6 7 8 9 10 11 12 13 14
000
FTUS41 KBTV 101700
TAFMSS
TAF
KMSS 101720Z 1018/1118 27008KT P6SM FEW050
     FM110000 00000KT P6SM SKC
      TEMPO 1108/1112 3SM BR SCT001=

USA.gov is the U.S. government's official web portal to all federal, state and local government web resources and services.